sensor_id;sensor_type;location;lat;lon;timestamp;P1;durP1;ratioP1;P2;durP2;ratioP2
76210;SDS011;65003;49.518;11.280;2023-08-06T00:00:29;5.50;;;4.20;;
76210;SDS011;65003;49.518;11.280;2023-08-06T00:02:55;4.63;;;3.97;;
76210;SDS011;65003;49.518;11.280;2023-08-06T00:05:22;4.30;;;3.90;;
76210;SDS011;65003;49.518;11.280;2023-08-06T00:07:49;4.40;;;3.67;;
76210;SDS011;65003;49.518;11.280;2023-08-06T00:10:15;4.50;;;3.70;;
76210;SDS011;65003;49.518;11.280;2023-08-06T00:12:42;4.00;;;3.40;;
76210;SDS011;65003;49.518;11.280;2023-08-06T00:15:08;3.63;;;3.33;;
76210;SDS011;65003;49.518;11.280;2023-08-06T00:17:35;4.00;;;3.70;;
76210;SDS011;65003;49.518;11.280;2023-08-06T00:20:02;4.20;;;3.60;;
76210;SDS011;65003;49.518;11.280;2023-08-06T00:22:29;5.63;;;3.80;;
76210;SDS011;65003;49.518;11.280;2023-08-06T00:24:55;3.40;;;2.87;;
76210;SDS011;65003;49.518;11.280;2023-08-06T00:27:22;4.03;;;3.50;;
76210;SDS011;65003;49.518;11.280;2023-08-06T00:29:48;3.80;;;3.47;;
76210;SDS011;65003;49.518;11.280;2023-08-06T00:32:15;4.30;;;3.40;;
76210;SDS011;65003;49.518;11.280;2023-08-06T00:34:42;4.37;;;3.37;;
76210;SDS011;65003;49.518;11.280;2023-08-06T00:37:08;4.63;;;3.40;;
76210;SDS011;65003;49.518;11.280;2023-08-06T00:39:35;7.30;;;3.30;;
76210;SDS011;65003;49.518;11.280;2023-08-06T00:42:01;3.30;;;3.00;;
76210;SDS011;65003;49.518;11.280;2023-08-06T00:44:28;6.57;;;4.00;;
76210;SDS011;65003;49.518;11.280;2023-08-06T00:46:55;4.00;;;3.60;;
76210;SDS011;65003;49.518;11.280;2023-08-06T00:49:21;3.90;;;3.50;;
76210;SDS011;65003;49.518;11.280;2023-08-06T00:51:48;3.97;;;3.67;;
76210;SDS011;65003;49.518;11.280;2023-08-06T00:54:14;3.87;;;3.33;;
76210;SDS011;65003;49.518;11.280;2023-08-06T00:56:41;3.83;;;3.40;;
76210;SDS011;65003;49.518;11.280;2023-08-06T00:59:08;3.80;;;3.50;;
76210;SDS011;65003;49.518;11.280;2023-08-06T01:01:34;4.13;;;3.43;;
76210;SDS011;65003;49.518;11.280;2023-08-06T01:04:01;4.30;;;3.80;;
76210;SDS011;65003;49.518;11.280;2023-08-06T01:06:45;5.80;;;3.70;;
76210;SDS011;65003;49.518;11.280;2023-08-06T01:09:15;5.97;;;3.23;;
76210;SDS011;65003;49.518;11.280;2023-08-06T01:11:45;3.83;;;3.30;;
76210;SDS011;65003;49.518;11.280;2023-08-06T01:14:28;3.43;;;3.00;;
76210;SDS011;65003;49.518;11.280;2023-08-06T01:16:53;3.03;;;2.50;;
76210;SDS011;65003;49.518;11.280;2023-08-06T01:19:19;3.70;;;2.73;;
76210;SDS011;65003;49.518;11.280;2023-08-06T01:21:46;3.97;;;2.60;;
76210;SDS011;65003;49.518;11.280;2023-08-06T01:24:12;4.10;;;2.90;;
76210;SDS011;65003;49.518;11.280;2023-08-06T01:26:42;3.93;;;3.23;;
76210;SDS011;65003;49.518;11.280;2023-08-06T01:29:14;3.27;;;2.97;;
76210;SDS011;65003;49.518;11.280;2023-08-06T01:31:39;4.20;;;2.90;;
76210;SDS011;65003;49.518;11.280;2023-08-06T01:34:06;3.93;;;3.10;;
76210;SDS011;65003;49.518;11.280;2023-08-06T01:36:32;3.63;;;2.73;;
76210;SDS011;65003;49.518;11.280;2023-08-06T01:38:59;4.33;;;2.60;;
76210;SDS011;65003;49.518;11.280;2023-08-06T01:41:25;4.93;;;3.20;;
76210;SDS011;65003;49.518;11.280;2023-08-06T01:43:52;5.70;;;3.30;;
76210;SDS011;65003;49.518;11.280;2023-08-06T01:46:18;5.20;;;3.60;;
76210;SDS011;65003;49.518;11.280;2023-08-06T01:48:45;3.80;;;3.50;;
76210;SDS011;65003;49.518;11.280;2023-08-06T01:51:11;4.00;;;3.23;;
76210;SDS011;65003;49.518;11.280;2023-08-06T01:53:38;5.70;;;3.50;;
76210;SDS011;65003;49.518;11.280;2023-08-06T01:56:05;3.73;;;3.10;;
76210;SDS011;65003;49.518;11.280;2023-08-06T01:58:31;5.67;;;3.23;;
76210;SDS011;65003;49.518;11.280;2023-08-06T02:00:58;3.40;;;3.10;;
76210;SDS011;65003;49.518;11.280;2023-08-06T02:03:24;3.37;;;3.07;;
76210;SDS011;65003;49.518;11.280;2023-08-06T02:05:51;3.60;;;3.00;;
76210;SDS011;65003;49.518;11.280;2023-08-06T02:08:18;5.33;;;3.10;;
76210;SDS011;65003;49.518;11.280;2023-08-06T02:10:44;3.53;;;3.20;;
76210;SDS011;65003;49.518;11.280;2023-08-06T02:13:11;3.47;;;2.87;;
76210;SDS011;65003;49.518;11.280;2023-08-06T02:15:42;5.43;;;3.43;;
76210;SDS011;65003;49.518;11.280;2023-08-06T02:18:08;5.73;;;3.17;;
76210;SDS011;65003;49.518;11.280;2023-08-06T02:20:35;3.10;;;2.77;;
76210;SDS011;65003;49.518;11.280;2023-08-06T02:23:02;6.70;;;3.10;;
76210;SDS011;65003;49.518;11.280;2023-08-06T02:25:28;2.80;;;2.50;;
76210;SDS011;65003;49.518;11.280;2023-08-06T02:27:55;4.57;;;2.43;;
76210;SDS011;65003;49.518;11.280;2023-08-06T02:30:21;3.63;;;3.33;;
76210;SDS011;65003;49.518;11.280;2023-08-06T02:32:48;4.03;;;3.10;;
76210;SDS011;65003;49.518;11.280;2023-08-06T02:35:14;3.10;;;2.80;;
76210;SDS011;65003;49.518;11.280;2023-08-06T02:37:41;3.13;;;2.83;;
76210;SDS011;65003;49.518;11.280;2023-08-06T02:40:08;3.07;;;2.87;;
76210;SDS011;65003;49.518;11.280;2023-08-06T02:42:34;3.57;;;2.93;;
76210;SDS011;65003;49.518;11.280;2023-08-06T02:45:01;5.90;;;3.10;;
76210;SDS011;65003;49.518;11.280;2023-08-06T02:47:28;4.47;;;3.00;;
76210;SDS011;65003;49.518;11.280;2023-08-06T02:49:54;3.73;;;3.20;;
76210;SDS011;65003;49.518;11.280;2023-08-06T02:52:21;3.77;;;3.10;;
76210;SDS011;65003;49.518;11.280;2023-08-06T02:54:48;4.67;;;3.27;;
76210;SDS011;65003;49.518;11.280;2023-08-06T02:57:14;5.03;;;3.03;;
76210;SDS011;65003;49.518;11.280;2023-08-06T02:59:41;3.20;;;2.90;;
76210;SDS011;65003;49.518;11.280;2023-08-06T03:02:07;6.43;;;3.43;;
76210;SDS011;65003;49.518;11.280;2023-08-06T03:04:34;4.33;;;3.13;;
76210;SDS011;65003;49.518;11.280;2023-08-06T03:07:01;4.40;;;3.70;;
76210;SDS011;65003;49.518;11.280;2023-08-06T03:09:27;3.67;;;3.30;;
76210;SDS011;65003;49.518;11.280;2023-08-06T03:11:54;4.93;;;3.10;;
76210;SDS011;65003;49.518;11.280;2023-08-06T03:14:20;4.27;;;3.47;;
76210;SDS011;65003;49.518;11.280;2023-08-06T03:16:47;3.77;;;3.40;;
76210;SDS011;65003;49.518;11.280;2023-08-06T03:19:14;3.70;;;2.80;;
76210;SDS011;65003;49.518;11.280;2023-08-06T03:21:40;3.73;;;3.27;;
76210;SDS011;65003;49.518;11.280;2023-08-06T03:24:07;4.10;;;3.50;;
76210;SDS011;65003;49.518;11.280;2023-08-06T03:26:33;3.47;;;3.10;;
76210;SDS011;65003;49.518;11.280;2023-08-06T03:29:00;4.40;;;4.00;;
76210;SDS011;65003;49.518;11.280;2023-08-06T03:31:26;4.50;;;3.63;;
76210;SDS011;65003;49.518;11.280;2023-08-06T03:33:53;5.27;;;3.63;;
76210;SDS011;65003;49.518;11.280;2023-08-06T03:36:20;4.73;;;4.20;;
76210;SDS011;65003;49.518;11.280;2023-08-06T03:38:46;4.27;;;3.63;;
76210;SDS011;65003;49.518;11.280;2023-08-06T03:41:13;6.63;;;4.40;;
76210;SDS011;65003;49.518;11.280;2023-08-06T03:43:39;4.23;;;3.80;;
76210;SDS011;65003;49.518;11.280;2023-08-06T03:46:06;4.80;;;3.60;;
76210;SDS011;65003;49.518;11.280;2023-08-06T03:48:33;6.37;;;4.03;;
76210;SDS011;65003;49.518;11.280;2023-08-06T03:50:59;5.60;;;3.93;;
76210;SDS011;65003;49.518;11.280;2023-08-06T03:53:26;6.23;;;3.93;;
76210;SDS011;65003;49.518;11.280;2023-08-06T03:55:52;4.17;;;3.77;;
76210;SDS011;65003;49.518;11.280;2023-08-06T03:58:19;4.83;;;3.93;;
76210;SDS011;65003;49.518;11.280;2023-08-06T04:00:45;7.60;;;4.17;;
76210;SDS011;65003;49.518;11.280;2023-08-06T04:03:12;4.60;;;4.03;;
76210;SDS011;65003;49.518;11.280;2023-08-06T04:05:39;7.20;;;3.57;;
76210;SDS011;65003;49.518;11.280;2023-08-06T04:08:05;3.70;;;3.30;;
76210;SDS011;65003;49.518;11.280;2023-08-06T04:10:32;4.23;;;3.83;;
76210;SDS011;65003;49.518;11.280;2023-08-06T04:12:58;4.53;;;3.30;;
76210;SDS011;65003;49.518;11.280;2023-08-06T04:15:25;4.57;;;3.60;;
76210;SDS011;65003;49.518;11.280;2023-08-06T04:17:52;4.07;;;3.20;;
76210;SDS011;65003;49.518;11.280;2023-08-06T04:20:18;3.80;;;3.50;;
76210;SDS011;65003;49.518;11.280;2023-08-06T04:22:45;3.90;;;3.50;;
76210;SDS011;65003;49.518;11.280;2023-08-06T04:25:11;4.23;;;3.83;;
76210;SDS011;65003;49.518;11.280;2023-08-06T04:27:38;3.20;;;2.90;;
76210;SDS011;65003;49.518;11.280;2023-08-06T04:30:05;4.00;;;3.47;;
76210;SDS011;65003;49.518;11.280;2023-08-06T04:32:32;3.93;;;3.50;;
76210;SDS011;65003;49.518;11.280;2023-08-06T04:34:58;3.93;;;3.20;;
76210;SDS011;65003;49.518;11.280;2023-08-06T04:37:25;4.27;;;3.43;;
76210;SDS011;65003;49.518;11.280;2023-08-06T04:39:52;3.30;;;3.00;;
76210;SDS011;65003;49.518;11.280;2023-08-06T04:42:18;5.10;;;3.93;;
76210;SDS011;65003;49.518;11.280;2023-08-06T04:44:45;4.13;;;3.67;;
76210;SDS011;65003;49.518;11.280;2023-08-06T04:47:11;4.77;;;3.87;;
76210;SDS011;65003;49.518;11.280;2023-08-06T04:49:38;6.00;;;3.60;;
76210;SDS011;65003;49.518;11.280;2023-08-06T04:52:05;4.53;;;3.50;;
76210;SDS011;65003;49.518;11.280;2023-08-06T04:54:33;3.60;;;3.27;;
76210;SDS011;65003;49.518;11.280;2023-08-06T04:56:59;3.03;;;2.83;;
76210;SDS011;65003;49.518;11.280;2023-08-06T04:59:25;4.10;;;3.20;;
76210;SDS011;65003;49.518;11.280;2023-08-06T05:01:52;5.40;;;3.13;;
76210;SDS011;65003;49.518;11.280;2023-08-06T05:04:18;3.03;;;2.80;;
76210;SDS011;65003;49.518;11.280;2023-08-06T05:06:45;4.67;;;3.40;;
76210;SDS011;65003;49.518;11.280;2023-08-06T05:09:11;3.77;;;3.07;;
76210;SDS011;65003;49.518;11.280;2023-08-06T05:11:38;6.17;;;3.37;;
76210;SDS011;65003;49.518;11.280;2023-08-06T05:14:05;3.17;;;2.87;;
76210;SDS011;65003;49.518;11.280;2023-08-06T05:16:31;4.70;;;3.53;;
76210;SDS011;65003;49.518;11.280;2023-08-06T05:18:58;5.80;;;3.23;;
76210;SDS011;65003;49.518;11.280;2023-08-06T05:21:24;4.37;;;3.03;;
76210;SDS011;65003;49.518;11.280;2023-08-06T05:23:51;4.87;;;2.90;;
76210;SDS011;65003;49.518;11.280;2023-08-06T05:26:18;5.10;;;3.00;;
76210;SDS011;65003;49.518;11.280;2023-08-06T05:28:44;4.57;;;2.60;;
76210;SDS011;65003;49.518;11.280;2023-08-06T05:31:11;3.37;;;2.80;;
76210;SDS011;65003;49.518;11.280;2023-08-06T05:33:37;3.13;;;2.53;;
76210;SDS011;65003;49.518;11.280;2023-08-06T05:36:04;4.20;;;2.40;;
76210;SDS011;65003;49.518;11.280;2023-08-06T05:38:31;4.60;;;2.40;;
76210;SDS011;65003;49.518;11.280;2023-08-06T05:40:57;3.10;;;2.77;;
76210;SDS011;65003;49.518;11.280;2023-08-06T05:43:24;3.87;;;2.80;;
76210;SDS011;65003;49.518;11.280;2023-08-06T05:45:50;4.63;;;2.90;;
76210;SDS011;65003;49.518;11.280;2023-08-06T05:48:17;6.23;;;2.67;;
76210;SDS011;65003;49.518;11.280;2023-08-06T05:50:43;3.83;;;2.80;;
76210;SDS011;65003;49.518;11.280;2023-08-06T05:53:10;3.33;;;2.60;;
76210;SDS011;65003;49.518;11.280;2023-08-06T05:55:37;3.83;;;2.73;;
76210;SDS011;65003;49.518;11.280;2023-08-06T05:58:03;4.80;;;2.60;;
76210;SDS011;65003;49.518;11.280;2023-08-06T06:00:30;2.83;;;2.60;;
76210;SDS011;65003;49.518;11.280;2023-08-06T06:02:56;4.00;;;2.67;;
76210;SDS011;65003;49.518;11.280;2023-08-06T06:05:23;3.50;;;3.20;;
76210;SDS011;65003;49.518;11.280;2023-08-06T06:07:49;2.50;;;2.30;;
76210;SDS011;65003;49.518;11.280;2023-08-06T06:10:16;2.73;;;2.53;;
76210;SDS011;65003;49.518;11.280;2023-08-06T06:12:43;3.30;;;2.70;;
76210;SDS011;65003;49.518;11.280;2023-08-06T06:15:09;2.90;;;2.53;;
76210;SDS011;65003;49.518;11.280;2023-08-06T06:17:36;4.23;;;3.00;;
76210;SDS011;65003;49.518;11.280;2023-08-06T06:20:03;4.37;;;2.57;;
76210;SDS011;65003;49.518;11.280;2023-08-06T06:22:30;4.00;;;2.70;;
76210;SDS011;65003;49.518;11.280;2023-08-06T06:24:56;13.23;;;3.10;;
76210;SDS011;65003;49.518;11.280;2023-08-06T06:27:23;5.93;;;2.37;;
76210;SDS011;65003;49.518;11.280;2023-08-06T06:29:49;2.40;;;1.93;;
76210;SDS011;65003;49.518;11.280;2023-08-06T06:32:16;4.70;;;2.00;;
76210;SDS011;65003;49.518;11.280;2023-08-06T06:34:42;2.20;;;2.00;;
76210;SDS011;65003;49.518;11.280;2023-08-06T06:37:09;2.97;;;2.10;;
76210;SDS011;65003;49.518;11.280;2023-08-06T06:39:36;2.77;;;1.37;;
76210;SDS011;65003;49.518;11.280;2023-08-06T06:42:02;5.33;;;1.37;;
76210;SDS011;65003;49.518;11.280;2023-08-06T06:44:29;1.40;;;1.30;;
76210;SDS011;65003;49.518;11.280;2023-08-06T06:46:56;3.70;;;2.20;;
76210;SDS011;65003;49.518;11.280;2023-08-06T06:49:22;2.00;;;1.80;;
76210;SDS011;65003;49.518;11.280;2023-08-06T06:51:49;4.27;;;2.20;;
76210;SDS011;65003;49.518;11.280;2023-08-06T06:54:15;2.57;;;1.70;;
76210;SDS011;65003;49.518;11.280;2023-08-06T06:56:42;2.67;;;1.83;;
76210;SDS011;65003;49.518;11.280;2023-08-06T06:59:09;3.27;;;1.90;;
76210;SDS011;65003;49.518;11.280;2023-08-06T07:01:35;3.63;;;1.80;;
76210;SDS011;65003;49.518;11.280;2023-08-06T07:04:02;2.30;;;2.00;;
76210;SDS011;65003;49.518;11.280;2023-08-06T07:06:28;2.73;;;2.33;;
76210;SDS011;65003;49.518;11.280;2023-08-06T07:08:55;2.60;;;2.10;;
76210;SDS011;65003;49.518;11.280;2023-08-06T07:11:22;4.90;;;1.97;;
76210;SDS011;65003;49.518;11.280;2023-08-06T07:13:49;4.20;;;2.30;;
76210;SDS011;65003;49.518;11.280;2023-08-06T07:16:15;2.77;;;2.37;;
76210;SDS011;65003;49.518;11.280;2023-08-06T07:18:42;2.33;;;2.13;;
76210;SDS011;65003;49.518;11.280;2023-08-06T07:21:08;2.70;;;2.50;;
76210;SDS011;65003;49.518;11.280;2023-08-06T07:23:34;2.50;;;2.30;;
76210;SDS011;65003;49.518;11.280;2023-08-06T07:26:01;3.50;;;3.03;;
76210;SDS011;65003;49.518;11.280;2023-08-06T07:28:28;2.53;;;2.30;;
76210;SDS011;65003;49.518;11.280;2023-08-06T07:30:54;3.87;;;2.50;;
76210;SDS011;65003;49.518;11.280;2023-08-06T07:33:21;3.17;;;2.17;;
76210;SDS011;65003;49.518;11.280;2023-08-06T07:35:47;2.33;;;2.00;;
76210;SDS011;65003;49.518;11.280;2023-08-06T07:38:14;4.10;;;2.67;;
76210;SDS011;65003;49.518;11.280;2023-08-06T07:40:40;2.50;;;2.30;;
76210;SDS011;65003;49.518;11.280;2023-08-06T07:43:07;2.90;;;2.17;;
76210;SDS011;65003;49.518;11.280;2023-08-06T07:45:34;3.97;;;1.90;;
76210;SDS011;65003;49.518;11.280;2023-08-06T07:48:00;4.80;;;2.40;;
76210;SDS011;65003;49.518;11.280;2023-08-06T07:50:27;2.43;;;2.23;;
76210;SDS011;65003;49.518;11.280;2023-08-06T07:52:53;2.93;;;2.13;;
76210;SDS011;65003;49.518;11.280;2023-08-06T07:55:20;2.73;;;2.40;;
76210;SDS011;65003;49.518;11.280;2023-08-06T07:57:47;4.13;;;2.50;;
76210;SDS011;65003;49.518;11.280;2023-08-06T08:00:13;2.20;;;1.83;;
76210;SDS011;65003;49.518;11.280;2023-08-06T08:02:40;2.70;;;2.50;;
76210;SDS011;65003;49.518;11.280;2023-08-06T08:05:06;2.30;;;2.17;;
76210;SDS011;65003;49.518;11.280;2023-08-06T08:07:33;2.97;;;2.27;;
76210;SDS011;65003;49.518;11.280;2023-08-06T08:10:00;3.90;;;2.23;;
76210;SDS011;65003;49.518;11.280;2023-08-06T08:12:26;6.00;;;2.37;;
76210;SDS011;65003;49.518;11.280;2023-08-06T08:14:53;4.00;;;2.30;;
76210;SDS011;65003;49.518;11.280;2023-08-06T08:17:19;3.33;;;2.40;;
76210;SDS011;65003;49.518;11.280;2023-08-06T08:19:46;3.13;;;2.27;;
76210;SDS011;65003;49.518;11.280;2023-08-06T08:22:12;2.40;;;1.73;;
76210;SDS011;65003;49.518;11.280;2023-08-06T08:24:39;2.83;;;1.90;;
76210;SDS011;65003;49.518;11.280;2023-08-06T08:27:06;4.13;;;1.90;;
76210;SDS011;65003;49.518;11.280;2023-08-06T08:29:32;2.77;;;1.60;;
76210;SDS011;65003;49.518;11.280;2023-08-06T08:31:59;3.30;;;1.90;;
76210;SDS011;65003;49.518;11.280;2023-08-06T08:34:25;2.20;;;1.60;;
76210;SDS011;65003;49.518;11.280;2023-08-06T08:36:52;2.37;;;1.70;;
76210;SDS011;65003;49.518;11.280;2023-08-06T08:39:19;1.40;;;1.13;;
76210;SDS011;65003;49.518;11.280;2023-08-06T08:41:45;1.70;;;1.20;;
76210;SDS011;65003;49.518;11.280;2023-08-06T08:44:12;1.73;;;1.40;;
76210;SDS011;65003;49.518;11.280;2023-08-06T08:46:40;4.70;;;1.93;;
76210;SDS011;65003;49.518;11.280;2023-08-06T08:49:05;4.75;;;2.37;;
76210;SDS011;65003;49.518;11.280;2023-08-06T08:51:33;1.70;;;1.47;;
76210;SDS011;65003;49.518;11.280;2023-08-06T08:53:59;2.03;;;1.57;;
76210;SDS011;65003;49.518;11.280;2023-08-06T08:56:26;2.50;;;1.60;;
76210;SDS011;65003;49.518;11.280;2023-08-06T08:58:52;3.30;;;1.20;;
76210;SDS011;65003;49.518;11.280;2023-08-06T09:01:20;1.97;;;1.20;;
76210;SDS011;65003;49.518;11.280;2023-08-06T09:03:46;1.73;;;1.40;;
76210;SDS011;65003;49.518;11.280;2023-08-06T09:06:12;0.87;;;0.70;;
76210;SDS011;65003;49.518;11.280;2023-08-06T09:08:43;2.53;;;0.90;;
76210;SDS011;65003;49.518;11.280;2023-08-06T09:11:09;1.03;;;0.80;;
76210;SDS011;65003;49.518;11.280;2023-08-06T09:13:35;1.90;;;0.87;;
76210;SDS011;65003;49.518;11.280;2023-08-06T09:16:01;0.90;;;0.70;;
76210;SDS011;65003;49.518;11.280;2023-08-06T09:18:29;0.70;;;0.70;;
76210;SDS011;65003;49.518;11.280;2023-08-06T09:20:56;1.63;;;0.40;;
76210;SDS011;65003;49.518;11.280;2023-08-06T09:23:27;2.07;;;0.50;;
76210;SDS011;65003;49.518;11.280;2023-08-06T09:25:56;0.77;;;0.70;;
76210;SDS011;65003;49.518;11.280;2023-08-06T09:28:22;0.77;;;0.40;;
76210;SDS011;65003;49.518;11.280;2023-08-06T09:30:49;2.33;;;0.50;;
76210;SDS011;65003;49.518;11.280;2023-08-06T09:33:18;1.67;;;0.40;;
76210;SDS011;65003;49.518;11.280;2023-08-06T09:35:46;1.57;;;0.20;;
76210;SDS011;65003;49.518;11.280;2023-08-06T09:38:12;1.37;;;0.40;;
76210;SDS011;65003;49.518;11.280;2023-08-06T09:40:39;0.70;;;0.30;;
76210;SDS011;65003;49.518;11.280;2023-08-06T09:43:06;0.82;;;0.40;;
76210;SDS011;65003;49.518;11.280;2023-08-06T09:45:33;0.90;;;0.20;;
76210;SDS011;65003;49.518;11.280;2023-08-06T09:48:04;0.30;;;0.23;;
76210;SDS011;65003;49.518;11.280;2023-08-06T09:50:30;0.20;;;0.20;;
76210;SDS011;65003;49.518;11.280;2023-08-06T09:52:56;1.30;;;0.13;;
76210;SDS011;65003;49.518;11.280;2023-08-06T09:55:23;0.40;;;0.20;;
76210;SDS011;65003;49.518;11.280;2023-08-06T09:57:50;1.00;;;0.37;;
76210;SDS011;65003;49.518;11.280;2023-08-06T10:00:16;1.80;;;0.30;;
76210;SDS011;65003;49.518;11.280;2023-08-06T10:02:43;0.20;;;0.20;;
76210;SDS011;65003;49.518;11.280;2023-08-06T10:05:09;0.47;;;0.27;;
76210;SDS011;65003;49.518;11.280;2023-08-06T10:07:36;0.30;;;0.30;;
76210;SDS011;65003;49.518;11.280;2023-08-06T10:10:03;0.20;;;0.20;;
76210;SDS011;65003;49.518;11.280;2023-08-06T10:12:34;0.30;;;0.20;;
76210;SDS011;65003;49.518;11.280;2023-08-06T10:14:57;0.40;;;0.20;;
76210;SDS011;65003;49.518;11.280;2023-08-06T10:17:23;0.70;;;0.40;;
76210;SDS011;65003;49.518;11.280;2023-08-06T10:19:50;0.50;;;0.20;;
76210;SDS011;65003;49.518;11.280;2023-08-06T10:22:17;0.47;;;0.10;;
76210;SDS011;65003;49.518;11.280;2023-08-06T10:24:47;0.70;;;0.10;;
76210;SDS011;65003;49.518;11.280;2023-08-06T10:27:21;0.93;;;0.20;;
76210;SDS011;65003;49.518;11.280;2023-08-06T10:35:10;0.77;;;0.20;;
76210;SDS011;65003;49.518;11.280;2023-08-06T10:37:36;0.50;;;0.20;;
76210;SDS011;65003;49.518;11.280;2023-08-06T10:40:03;0.10;;;0.10;;
76210;SDS011;65003;49.518;11.280;2023-08-06T10:42:30;0.40;;;0.30;;
76210;SDS011;65003;49.518;11.280;2023-08-06T10:47:38;0.10;;;0.10;;
76210;SDS011;65003;49.518;11.280;2023-08-06T10:50:05;1.93;;;0.27;;
76210;SDS011;65003;49.518;11.280;2023-08-06T10:52:33;0.33;;;0.20;;
76210;SDS011;65003;49.518;11.280;2023-08-06T10:54:59;0.30;;;0.20;;
76210;SDS011;65003;49.518;11.280;2023-08-06T10:57:25;0.40;;;0.20;;
76210;SDS011;65003;49.518;11.280;2023-08-06T10:59:52;1.33;;;0.57;;
76210;SDS011;65003;49.518;11.280;2023-08-06T11:02:19;4.07;;;0.60;;
76210;SDS011;65003;49.518;11.280;2023-08-06T11:04:45;1.23;;;0.30;;
76210;SDS011;65003;49.518;11.280;2023-08-06T11:07:13;1.03;;;0.73;;
76210;SDS011;65003;49.518;11.280;2023-08-06T11:09:38;1.20;;;0.30;;
76210;SDS011;65003;49.518;11.280;2023-08-06T11:12:09;1.40;;;0.43;;
76210;SDS011;65003;49.518;11.280;2023-08-06T11:14:35;0.40;;;0.20;;
76210;SDS011;65003;49.518;11.280;2023-08-06T11:17:02;0.30;;;0.30;;
76210;SDS011;65003;49.518;11.280;2023-08-06T11:19:28;2.37;;;0.30;;
76210;SDS011;65003;49.518;11.280;2023-08-06T11:21:55;0.30;;;0.20;;
76210;SDS011;65003;49.518;11.280;2023-08-06T11:24:23;0.10;;;0.10;;
76210;SDS011;65003;49.518;11.280;2023-08-06T11:26:48;0.47;;;0.40;;
76210;SDS011;65003;49.518;11.280;2023-08-06T11:29:15;0.50;;;0.50;;
76210;SDS011;65003;49.518;11.280;2023-08-06T11:31:41;1.30;;;0.50;;
76210;SDS011;65003;49.518;11.280;2023-08-06T11:34:08;0.57;;;0.43;;
76210;SDS011;65003;49.518;11.280;2023-08-06T11:36:36;0.40;;;0.33;;
76210;SDS011;65003;49.518;11.280;2023-08-06T11:39:02;0.40;;;0.40;;
76210;SDS011;65003;49.518;11.280;2023-08-06T11:41:28;0.77;;;0.30;;
76210;SDS011;65003;49.518;11.280;2023-08-06T11:43:54;0.97;;;0.30;;
76210;SDS011;65003;49.518;11.280;2023-08-06T11:46:21;1.57;;;0.50;;
76210;SDS011;65003;49.518;11.280;2023-08-06T11:48:51;0.30;;;0.30;;
76210;SDS011;65003;49.518;11.280;2023-08-06T11:51:18;0.43;;;0.23;;
76210;SDS011;65003;49.518;11.280;2023-08-06T11:53:48;0.40;;;0.10;;
76210;SDS011;65003;49.518;11.280;2023-08-06T11:56:13;0.57;;;0.23;;
76210;SDS011;65003;49.518;11.280;2023-08-06T11:58:40;0.20;;;0.10;;
76210;SDS011;65003;49.518;11.280;2023-08-06T12:01:07;2.03;;;0.10;;
76210;SDS011;65003;49.518;11.280;2023-08-06T12:03:38;0.10;;;0.10;;
76210;SDS011;65003;49.518;11.280;2023-08-06T12:06:07;0.57;;;0.20;;
76210;SDS011;65003;49.518;11.280;2023-08-06T12:08:33;0.37;;;0.23;;
76210;SDS011;65003;49.518;11.280;2023-08-06T12:11:00;0.20;;;0.20;;
76210;SDS011;65003;49.518;11.280;2023-08-06T12:13:27;0.10;;;0.10;;
76210;SDS011;65003;49.518;11.280;2023-08-06T12:15:53;1.03;;;0.20;;
76210;SDS011;65003;49.518;11.280;2023-08-06T12:18:20;0.70;;;0.30;;
76210;SDS011;65003;49.518;11.280;2023-08-06T12:20:46;0.20;;;0.20;;
76210;SDS011;65003;49.518;11.280;2023-08-06T12:23:13;0.43;;;0.20;;
76210;SDS011;65003;49.518;11.280;2023-08-06T12:25:40;1.13;;;0.23;;
76210;SDS011;65003;49.518;11.280;2023-08-06T12:28:06;0.60;;;0.20;;
76210;SDS011;65003;49.518;11.280;2023-08-06T12:30:33;0.20;;;0.10;;
76210;SDS011;65003;49.518;11.280;2023-08-06T12:32:59;0.50;;;0.10;;
76210;SDS011;65003;49.518;11.280;2023-08-06T12:35:26;0.33;;;0.20;;
76210;SDS011;65003;49.518;11.280;2023-08-06T12:37:52;1.10;;;0.30;;
76210;SDS011;65003;49.518;11.280;2023-08-06T12:40:19;0.20;;;0.20;;
76210;SDS011;65003;49.518;11.280;2023-08-06T12:42:46;0.13;;;0.13;;
76210;SDS011;65003;49.518;11.280;2023-08-06T12:45:12;0.20;;;0.13;;
76210;SDS011;65003;49.518;11.280;2023-08-06T12:47:39;0.87;;;0.20;;
76210;SDS011;65003;49.518;11.280;2023-08-06T12:50:06;0.97;;;0.17;;
76210;SDS011;65003;49.518;11.280;2023-08-06T12:52:33;0.20;;;0.20;;
76210;SDS011;65003;49.518;11.280;2023-08-06T12:54:59;0.50;;;0.20;;
76210;SDS011;65003;49.518;11.280;2023-08-06T12:57:26;1.23;;;0.20;;
76210;SDS011;65003;49.518;11.280;2023-08-06T12:59:52;0.20;;;0.10;;
76210;SDS011;65003;49.518;11.280;2023-08-06T13:02:19;0.20;;;0.20;;
76210;SDS011;65003;49.518;11.280;2023-08-06T13:04:46;0.20;;;0.20;;
76210;SDS011;65003;49.518;11.280;2023-08-06T13:07:12;0.83;;;0.20;;
76210;SDS011;65003;49.518;11.280;2023-08-06T13:09:39;0.20;;;0.20;;
76210;SDS011;65003;49.518;11.280;2023-08-06T13:12:06;0.87;;;0.23;;
76210;SDS011;65003;49.518;11.280;2023-08-06T13:14:32;0.40;;;0.17;;
76210;SDS011;65003;49.518;11.280;2023-08-06T13:16:59;1.23;;;0.20;;
76210;SDS011;65003;49.518;11.280;2023-08-06T13:19:25;1.17;;;0.20;;
76210;SDS011;65003;49.518;11.280;2023-08-06T13:21:59;0.70;;;0.10;;
76210;SDS011;65003;49.518;11.280;2023-08-06T13:24:24;0.20;;;0.20;;
76210;SDS011;65003;49.518;11.280;2023-08-06T13:26:51;0.33;;;0.10;;
76210;SDS011;65003;49.518;11.280;2023-08-06T13:29:18;0.00;;;0.00;;
76210;SDS011;65003;49.518;11.280;2023-08-06T13:31:44;0.30;;;0.20;;
76210;SDS011;65003;49.518;11.280;2023-08-06T13:34:11;0.83;;;0.10;;
76210;SDS011;65003;49.518;11.280;2023-08-06T13:36:38;2.83;;;0.30;;
76210;SDS011;65003;49.518;11.280;2023-08-06T13:39:04;0.77;;;0.60;;
76210;SDS011;65003;49.518;11.280;2023-08-06T13:41:31;0.23;;;0.10;;
76210;SDS011;65003;49.518;11.280;2023-08-06T13:43:57;0.20;;;0.20;;
76210;SDS011;65003;49.518;11.280;2023-08-06T13:46:24;0.20;;;0.20;;
76210;SDS011;65003;49.518;11.280;2023-08-06T13:48:50;0.20;;;0.20;;
76210;SDS011;65003;49.518;11.280;2023-08-06T13:51:17;0.10;;;0.10;;
76210;SDS011;65003;49.518;11.280;2023-08-06T13:53:44;0.23;;;0.17;;
76210;SDS011;65003;49.518;11.280;2023-08-06T13:56:10;0.10;;;0.10;;
76210;SDS011;65003;49.518;11.280;2023-08-06T13:58:37;0.10;;;0.10;;
76210;SDS011;65003;49.518;11.280;2023-08-06T14:01:03;0.10;;;0.10;;
76210;SDS011;65003;49.518;11.280;2023-08-06T14:03:30;0.40;;;0.10;;
76210;SDS011;65003;49.518;11.280;2023-08-06T14:05:57;1.30;;;0.10;;
76210;SDS011;65003;49.518;11.280;2023-08-06T14:08:24;0.10;;;0.10;;
76210;SDS011;65003;49.518;11.280;2023-08-06T14:10:50;0.93;;;0.10;;
76210;SDS011;65003;49.518;11.280;2023-08-06T14:13:16;0.10;;;0.10;;
76210;SDS011;65003;49.518;11.280;2023-08-06T14:15:43;0.10;;;0.10;;
76210;SDS011;65003;49.518;11.280;2023-08-06T14:18:09;0.20;;;0.10;;
76210;SDS011;65003;49.518;11.280;2023-08-06T14:20:36;0.10;;;0.10;;
76210;SDS011;65003;49.518;11.280;2023-08-06T14:23:03;0.10;;;0.10;;
76210;SDS011;65003;49.518;11.280;2023-08-06T14:25:29;0.10;;;0.10;;
76210;SDS011;65003;49.518;11.280;2023-08-06T14:27:56;0.20;;;0.20;;
76210;SDS011;65003;49.518;11.280;2023-08-06T14:30:22;0.10;;;0.10;;
76210;SDS011;65003;49.518;11.280;2023-08-06T14:32:49;0.97;;;0.07;;
76210;SDS011;65003;49.518;11.280;2023-08-06T14:35:16;0.10;;;0.10;;
76210;SDS011;65003;49.518;11.280;2023-08-06T14:37:43;0.10;;;0.10;;